Terminal Aerodrome Forecast
Issued by NWS Charleston, WV

Current Version | Previous Version | Graphics & Text | Print | Product List | Glossary On
Versions: 1 2 3 4 5 6 7 8 9 10 11 12 13 14 15 16 17 18 19 20
000
FTUS41 KRLX 040500 RRA
TAFHTS
TAF
KHTS 040543Z 0406/0506 30007KT 6SM -RA BR BKN008 OVC012
      TEMPO 0406/0408 OVC012
     FM041300 00000KT 5SM -RA BR OVC008
     FM041500 34007KT 2SM +RA BR OVC008
     FM042200 36008G15KT 2SM +RAPL BR OVC008
     FM050200 01007KT 3SM -PL OVC010
     FM050500 36008G16KT 1SM -SNPL BR OVC008=

USA.gov is the U.S. government's official web portal to all federal, state and local government web resources and services.